Time;durP1;ratioP1;P1;durP2;ratioP2;P2;SDS_P1;SDS_P2;PMS_P1;PMS_P2;Temp;Humidity;BMP_temperature;BMP_pressure;BME280_temperature;BME280_humidity;BME280_pressure;Samples;Min_cycle;Max_cycle;Signal;HPM_P1;HPM_P2
2023/03/16 00:01:37;;;;;;;;;;;;;;;;;;5076031;28;20337;-71
2023/03/16 00:04:03;;;;;;;;;;;;;;;;;;5076419;28;20264;-70
2023/03/16 00:06:29;;;;;;;;;;;;;;;;;;5094538;28;19954;-70
2023/03/16 00:08:57;;;;;;;;;;;;;;;;;;5094471;28;19952;-70
2023/03/16 00:11:23;;;;;;;;;;;;;;;;;;5076283;28;19908;-70
2023/03/16 00:13:50;;;;;;;;;;;;;;;;;;5094305;28;20326;-70
2023/03/16 00:16:16;;;;;;;;;;;;;;;;;;5093835;28;19916;-70
2023/03/16 00:18:42;;;;;;;;;;;;;;;;;;5094521;28;19961;-71
2023/03/16 00:21:08;;;;;;;;;;;;;;;;;;5094207;28;19917;-71
2023/03/16 00:23:34;;;;;;;;;;;;;;;;;;5093882;28;19908;-70
2023/03/16 00:26:02;;;;;;;;;;;;;;;;;;5094117;28;20037;-70
2023/03/16 00:28:28;;;;;;;;;;;;;;;;;;5075625;28;19908;-70
2023/03/16 00:30:57;;;;;;;;;;;;;;;;;;5094128;28;19912;-70
2023/03/16 00:33:23;;;;;;;;;;;;;;;;;;5094053;28;19998;-70
2023/03/16 00:35:49;;;;;;;;;;;;;;;;;;5093387;28;19960;-70
2023/03/16 00:38:15;;;;;;;;;;;;;;;;;;5094171;28;19908;-70
2023/03/16 00:40:41;;;;;;;;;;;;;;;;;;5093980;28;20006;-70
2023/03/16 00:43:07;;;;;;;;;;;;;;;;;;5075443;28;19939;-70
2023/03/16 00:45:33;;;;;;;;;;;;;;;;;;5075777;28;19912;-70
2023/03/16 00:48:00;;;;;;;;;;;;;;;;;;5093948;28;19915;-70
2023/03/16 00:50:26;;;;;;;;;;;;;;;;;;5075734;28;19995;-70
2023/03/16 00:52:53;;;;;;;;;;;;;;;;;;5075875;28;20444;-70
2023/03/16 00:55:19;;;;;;;;;;;;;;;;;;5093928;28;20364;-70
2023/03/16 00:57:45;;;;;;;;;;;;;;;;;;5093579;28;19916;-70
2023/03/16 01:00:13;;;;;;;;;;;;;;;;;;5094086;28;19938;-70
2023/03/16 01:02:39;;;;;;;;;;;;;;;;;;5093783;28;19908;-70
2023/03/16 01:05:05;;;;;;;;;;;;;;;;;;5093381;28;19908;-70
2023/03/16 01:07:31;;;;;;;;;;;;;;;;;;5093703;28;19908;-70
2023/03/16 01:09:57;;;;;;;;;;;;;;;;;;5093689;28;19915;-70
2023/03/16 01:12:23;;;;;;;;;;;;;;;;;;5075217;28;19908;-70
2023/03/16 01:14:49;;;;;;;;;;;;;;;;;;5075485;28;20310;-70
2023/03/16 01:17:16;;;;;;;;;;;;;;;;;;5093571;28;20291;-70
2023/03/16 01:19:41;;;;;;;;;;;;;;;;;;5075022;28;19916;-70
2023/03/16 01:22:08;;;;;;;;;;;;;;;;;;5075457;28;20279;-70
2023/03/16 01:24:34;;;;;;;;;;;;;;;;;;5093144;28;20363;-71
2023/03/16 01:27:00;;;;;;;;;;;;;;;;;;5075359;28;20007;-69
2023/03/16 01:29:26;;;;;;;;;;;;;;;;;;5093451;28;19931;-68
2023/03/16 01:31:52;;;;;;;;;;;;;;;;;;5093127;28;19908;-69
2023/03/16 01:34:18;;;;;;;;;;;;;;;;;;5093469;28;19908;-69
2023/03/16 01:36:44;;;;;;;;;;;;;;;;;;5093892;28;20272;-69
2023/03/16 01:39:10;;;;;;;;;;;;;;;;;;5093077;28;20321;-69
2023/03/16 01:41:36;;;;;;;;;;;;;;;;;;5093616;28;19953;-69
2023/03/16 01:44:02;;;;;;;;;;;;;;;;;;5093423;28;20283;-69
2023/03/16 01:46:28;;;;;;;;;;;;;;;;;;5092926;28;19915;-69
2023/03/16 01:48:54;;;;;;;;;;;;;;;;;;5075164;28;19912;-69
2023/03/16 01:51:20;;;;;;;;;;;;;;;;;;5075120;28;19992;-69
2023/03/16 01:53:46;;;;;;;;;;;;;;;;;;5074740;28;19908;-69
2023/03/16 01:56:12;;;;;;;;;;;;;;;;;;5092912;28;19916;-69
2023/03/16 01:58:38;;;;;;;;;;;;;;;;;;5093169;28;19909;-69
2023/03/16 02:01:03;;;;;;;;;;;;;;;;;;5077463;28;19918;-69
2023/03/16 02:03:33;;;;;;;;;;;;;;;;;;5096781;28;19912;-69
2023/03/16 02:05:59;;;;;;;;;;;;;;;;;;5096946;28;19914;-69
2023/03/16 02:08:25;;;;;;;;;;;;;;;;;;5078197;28;19908;-69
2023/03/16 02:10:53;;;;;;;;;;;;;;;;;;5096604;28;19927;-69
2023/03/16 02:13:19;;;;;;;;;;;;;;;;;;5096613;28;19908;-69
2023/03/16 02:15:45;;;;;;;;;;;;;;;;;;5096200;28;20319;-68
2023/03/16 02:18:11;;;;;;;;;;;;;;;;;;5096262;28;19941;-68
2023/03/16 02:20:37;;;;;;;;;;;;;;;;;;5096512;28;19908;-69
2023/03/16 02:23:03;;;;;;;;;;;;;;;;;;5096052;28;20383;-69
2023/03/16 02:25:29;;;;;;;;;;;;;;;;;;5096532;28;20441;-69
2023/03/16 02:27:55;;;;;;;;;;;;;;;;;;5095986;28;20290;-69
2023/03/16 02:30:21;;;;;;;;;;;;;;;;;;5078042;28;19961;-69
2023/03/16 02:32:47;;;;;;;;;;;;;;;;;;5078189;28;19912;-69
2023/03/16 02:35:13;;;;;;;;;;;;;;;;;;5074092;28;20264;-69
2023/03/16 02:37:40;;;;;;;;;;;;;;;;;;5074580;28;19920;-69
2023/03/16 02:40:07;;;;;;;;;;;;;;;;;;5075818;28;19974;-69
2023/03/16 02:42:33;;;;;;;;;;;;;;;;;;5075371;28;19912;-69
2023/03/16 02:44:59;;;;;;;;;;;;;;;;;;5074479;28;19999;-69
2023/03/16 02:47:25;;;;;;;;;;;;;;;;;;5074424;28;20288;-69
2023/03/16 02:49:51;;;;;;;;;;;;;;;;;;5075671;28;19909;-69
2023/03/16 02:52:16;;;;;;;;;;;;;;;;;;5074424;28;20470;-69
2023/03/16 02:54:42;;;;;;;;;;;;;;;;;;5075836;28;20276;-69
2023/03/16 02:57:08;;;;;;;;;;;;;;;;;;5075085;28;20284;-69
2023/03/16 02:59:34;;;;;;;;;;;;;;;;;;5075517;28;20342;-69
2023/03/16 03:02:00;;;;;;;;;;;;;;;;;;5075397;28;20249;-69
2023/03/16 03:04:26;;;;;;;;;;;;;;;;;;5075006;28;19908;-69
2023/03/16 03:06:52;;;;;;;;;;;;;;;;;;5075286;28;20011;-69
2023/03/16 03:09:18;;;;;;;;;;;;;;;;;;5075271;28;19909;-70
2023/03/16 03:11:45;;;;;;;;;;;;;;;;;;5074944;28;20319;-70
2023/03/16 03:14:11;;;;;;;;;;;;;;;;;;5074003;28;19944;-70
2023/03/16 03:16:37;;;;;;;;;;;;;;;;;;5075678;28;19959;-70
2023/03/16 03:19:03;;;;;;;;;;;;;;;;;;5073470;28;20330;-70
2023/03/16 03:21:29;;;;;;;;;;;;;;;;;;5075019;28;20287;-70
2023/03/16 03:23:55;;;;;;;;;;;;;;;;;;5073720;28;19932;-70
2023/03/16 03:26:21;;;;;;;;;;;;;;;;;;5073349;28;19908;-70
2023/03/16 03:28:47;;;;;;;;;;;;;;;;;;5074918;28;19909;-70
2023/03/16 03:31:13;;;;;;;;;;;;;;;;;;5074730;28;19915;-70
2023/03/16 03:33:39;;;;;;;;;;;;;;;;;;5074826;28;19909;-70
2023/03/16 03:36:05;;;;;;;;;;;;;;;;;;5089673;28;19981;-70
2023/03/16 03:38:31;;;;;;;;;;;;;;;;;;5076348;28;19974;-68
2023/03/16 03:40:58;;;;;;;;;;;;;;;;;;5094839;28;19912;-68
2023/03/16 03:43:24;;;;;;;;;;;;;;;;;;5076905;28;19927;-68
2023/03/16 03:45:50;;;;;;;;;;;;;;;;;;5094375;28;19908;-69
2023/03/16 03:48:16;;;;;;;;;;;;;;;;;;5095010;28;19915;-69
2023/03/16 03:50:42;;;;;;;;;;;;;;;;;;5094787;28;19908;-68
2023/03/16 03:53:08;;;;;;;;;;;;;;;;;;5094406;28;19908;-69
2023/03/16 03:55:34;;;;;;;;;;;;;;;;;;5094562;28;19919;-69
2023/03/16 03:58:00;;;;;;;;;;;;;;;;;;5094676;28;19931;-72
2023/03/16 04:00:26;;;;;;;;;;;;;;;;;;5094093;28;19914;-70
2023/03/16 04:02:52;;;;;;;;;;;;;;;;;;5094531;28;19998;-70
2023/03/16 04:05:18;;;;;;;;;;;;;;;;;;5094817;28;19908;-70
2023/03/16 04:07:44;;;;;;;;;;;;;;;;;;5076052;28;19912;-70
2023/03/16 04:10:10;;;;;;;;;;;;;;;;;;5094496;28;19912;-70
2023/03/16 04:12:36;;;;;;;;;;;;;;;;;;5076230;28;20399;-69
2023/03/16 04:15:02;;;;;;;;;;;;;;;;;;5094052;28;19908;-70
2023/03/16 04:17:28;;;;;;;;;;;;;;;;;;5094633;28;19920;-70
2023/03/16 04:19:54;;;;;;;;;;;;;;;;;;5094336;28;20005;-70
2023/03/16 04:22:22;;;;;;;;;;;;;;;;;;5093446;28;19908;-70
2023/03/16 04:24:48;;;;;;;;;;;;;;;;;;5076144;28;20371;-70
2023/03/16 04:27:13;;;;;;;;;;;;;;;;;;5076053;28;19912;-70
2023/03/16 04:29:39;;;;;;;;;;;;;;;;;;5075640;28;19998;-70
2023/03/16 04:32:05;;;;;;;;;;;;;;;;;;5094170;28;19915;-70
2023/03/16 04:34:31;;;;;;;;;;;;;;;;;;5075459;28;19965;-70
2023/03/16 04:36:57;;;;;;;;;;;;;;;;;;5075840;28;19959;-70
2023/03/16 04:39:23;;;;;;;;;;;;;;;;;;5075841;28;20387;-70
2023/03/16 04:41:50;;;;;;;;;;;;;;;;;;5075537;28;20368;-71
2023/03/16 04:44:16;;;;;;;;;;;;;;;;;;5075895;28;19953;-70
2023/03/16 04:46:42;;;;;;;;;;;;;;;;;;5094101;28;19998;-70
2023/03/16 04:49:08;;;;;;;;;;;;;;;;;;5093506;28;20386;-70
2023/03/16 04:51:34;;;;;;;;;;;;;;;;;;5093841;28;20356;-70
2023/03/16 04:54:00;;;;;;;;;;;;;;;;;;5075783;28;19934;-70
2023/03/16 04:56:26;;;;;;;;;;;;;;;;;;5093256;28;20371;-68
2023/03/16 04:58:52;;;;;;;;;;;;;;;;;;5075947;28;20310;-68
2023/03/16 05:01:18;;;;;;;;;;;;;;;;;;5075711;28;19908;-68
2023/03/16 05:03:44;;;;;;;;;;;;;;;;;;5093329;28;19912;-68
2023/03/16 05:06:10;;;;;;;;;;;;;;;;;;5093673;28;19908;-68
2023/03/16 05:08:36;;;;;;;;;;;;;;;;;;5093804;28;19908;-68
2023/03/16 05:11:02;;;;;;;;;;;;;;;;;;5093242;28;19915;-68
2023/03/16 05:13:28;;;;;;;;;;;;;;;;;;5075663;28;19960;-69
2023/03/16 05:15:54;;;;;;;;;;;;;;;;;;5093741;28;19920;-69
2023/03/16 05:18:20;;;;;;;;;;;;;;;;;;5093167;28;20436;-69
2023/03/16 05:20:46;;;;;;;;;;;;;;;;;;5094168;28;20291;-69
2023/03/16 05:23:12;;;;;;;;;;;;;;;;;;5093731;28;19991;-69
2023/03/16 05:25:39;;;;;;;;;;;;;;;;;;5093160;28;19953;-69
2023/03/16 05:28:05;;;;;;;;;;;;;;;;;;5075352;28;19915;-69
2023/03/16 05:30:31;;;;;;;;;;;;;;;;;;5093439;28;19908;-69
2023/03/16 05:32:57;;;;;;;;;;;;;;;;;;5093047;28;19961;-69
2023/03/16 05:35:23;;;;;;;;;;;;;;;;;;5095268;28;19920;-69
2023/03/16 05:37:48;;;;;;;;;;;;;;;;;;5078591;28;19916;-69
2023/03/16 05:40:17;;;;;;;;;;;;;;;;;;5097208;28;19912;-69
2023/03/16 05:42:43;;;;;;;;;;;;;;;;;;5077518;28;19915;-69
2023/03/16 05:45:10;;;;;;;;;;;;;;;;;;5078093;28;19958;-69
2023/03/16 05:47:36;;;;;;;;;;;;;;;;;;5097168;28;19915;-68
2023/03/16 05:50:02;;;;;;;;;;;;;;;;;;5096284;28;19950;-69
2023/03/16 05:52:28;;;;;;;;;;;;;;;;;;5096076;28;19908;-69
2023/03/16 05:54:54;;;;;;;;;;;;;;;;;;5078617;28;19916;-69
2023/03/16 05:57:20;;;;;;;;;;;;;;;;;;5094736;28;19916;-69
2023/03/16 05:59:47;;;;;;;;;;;;;;;;;;5094651;28;19914;-69
2023/03/16 06:02:13;;;;;;;;;;;;;;;;;;5095325;28;19912;-69
2023/03/16 06:04:39;;;;;;;;;;;;;;;;;;5095724;28;19978;-69
2023/03/16 06:07:05;;;;;;;;;;;;;;;;;;5092276;28;19908;-72
2023/03/16 06:09:31;;;;;;;;;;;;;;;;;;5095653;28;19965;-72
2023/03/16 06:11:57;;;;;;;;;;;;;;;;;;5078382;28;20284;-73
2023/03/16 06:14:23;;;;;;;;;;;;;;;;;;5096239;28;19916;-73
2023/03/16 06:16:49;;;;;;;;;;;;;;;;;;5096275;28;19920;-68
2023/03/16 06:19:15;;;;;;;;;;;;;;;;;;5096071;28;19908;-70
2023/03/16 06:21:41;;;;;;;;;;;;;;;;;;5095700;28;20352;-70
2023/03/16 06:24:08;;;;;;;;;;;;;;;;;;5077048;28;20045;-71
2023/03/16 06:26:34;;;;;;;;;;;;;;;;;;5095400;28;19912;-69
2023/03/16 06:28:59;;;;;;;;;;;;;;;;;;5095324;28;20343;-68
2023/03/16 06:31:25;;;;;;;;;;;;;;;;;;5095002;28;20265;-69
2023/03/16 06:33:51;;;;;;;;;;;;;;;;;;5095412;28;20319;-67
2023/03/16 06:36:17;;;;;;;;;;;;;;;;;;5093817;28;19996;-68
2023/03/16 06:38:43;;;;;;;;;;;;;;;;;;5095202;28;19965;-72
2023/03/16 06:41:09;;;;;;;;;;;;;;;;;;5095201;28;19908;-68
2023/03/16 06:43:35;;;;;;;;;;;;;;;;;;5095488;28;19908;-70
2023/03/16 06:46:02;;;;;;;;;;;;;;;;;;5094769;28;19961;-67
2023/03/16 06:48:28;;;;;;;;;;;;;;;;;;5076534;28;19920;-71
2023/03/16 06:50:54;;;;;;;;;;;;;;;;;;5094760;28;19912;-69
2023/03/16 06:53:20;;;;;;;;;;;;;;;;;;5076061;28;19914;-69
2023/03/16 06:55:46;;;;;;;;;;;;;;;;;;5094662;28;19908;-69
2023/03/16 06:58:14;;;;;;;;;;;;;;;;;;5094694;28;19976;-70
2023/03/16 07:00:41;;;;;;;;;;;;;;;;;;5093775;28;19955;-70
2023/03/16 07:03:07;;;;;;;;;;;;;;;;;;5092304;28;20368;-70
2023/03/16 07:05:33;;;;;;;;;;;;;;;;;;5088408;28;19923;-71
2023/03/16 07:08:00;;;;;;;;;;;;;;;;;;5076555;28;19908;-71
2023/03/16 07:10:26;;;;;;;;;;;;;;;;;;5094432;28;19980;-72
2023/03/16 07:12:52;;;;;;;;;;;;;;;;;;5076602;28;20348;-73
2023/03/16 07:15:18;;;;;;;;;;;;;;;;;;5093829;28;20292;-70
2023/03/16 07:17:44;;;;;;;;;;;;;;;;;;5093399;28;19931;-71
2023/03/16 07:20:11;;;;;;;;;;;;;;;;;;5093101;28;19908;-70
2023/03/16 07:22:37;;;;;;;;;;;;;;;;;;5094134;28;20387;-71
2023/03/16 07:25:05;;;;;;;;;;;;;;;;;;5091199;28;19945;-70
2023/03/16 07:27:31;;;;;;;;;;;;;;;;;;5092724;28;19908;-71
2023/03/16 07:29:57;;;;;;;;;;;;;;;;;;5091116;28;19909;-70
2023/03/16 07:32:22;;;;;;;;;;;;;;;;;;5093198;28;19908;-69
2023/03/16 07:34:48;;;;;;;;;;;;;;;;;;5076998;28;20330;-70
2023/03/16 07:37:15;;;;;;;;;;;;;;;;;;5094029;28;20007;-70
2023/03/16 07:39:41;;;;;;;;;;;;;;;;;;5092496;28;19908;-70
2023/03/16 07:42:07;;;;;;;;;;;;;;;;;;5093880;28;20386;-70
2023/03/16 07:44:33;;;;;;;;;;;;;;;;;;5093052;28;19908;-71
2023/03/16 07:46:59;;;;;;;;;;;;;;;;;;5093662;28;20320;-69
2023/03/16 07:49:25;;;;;;;;;;;;;;;;;;5075321;28;19995;-70
2023/03/16 07:51:51;;;;;;;;;;;;;;;;;;5093268;28;19912;-70
2023/03/16 07:54:17;;;;;;;;;;;;;;;;;;5093924;28;19908;-70
2023/03/16 07:56:44;;;;;;;;;;;;;;;;;;5091957;28;19920;-70
2023/03/16 07:59:11;;;;;;;;;;;;;;;;;;5092777;28;19951;-71
2023/03/16 08:01:36;;;;;;;;;;;;;;;;;;5074713;28;19916;-69
2023/03/16 08:04:02;;;;;;;;;;;;;;;;;;5093360;28;19931;-70
2023/03/16 08:06:28;;;;;;;;;;;;;;;;;;5092907;28;19943;-68
2023/03/16 08:08:54;;;;;;;;;;;;;;;;;;5092947;28;19920;-69
2023/03/16 08:11:23;;;;;;;;;;;;;;;;;;5081682;28;19922;-69
2023/03/16 08:13:52;;;;;;;;;;;;;;;;;;5077275;28;19916;-67
2023/03/16 08:16:19;;;;;;;;;;;;;;;;;;5102992;28;19916;-70
2023/03/16 08:18:44;;;;;;;;;;;;;;;;;;5085928;28;20291;-69
2023/03/16 08:21:13;;;;;;;;;;;;;;;;;;5093296;28;19914;-71
2023/03/16 08:23:39;;;;;;;;;;;;;;;;;;5092219;28;19909;-68
2023/03/16 08:26:07;;;;;;;;;;;;;;;;;;5069996;28;19961;-69
2023/03/16 08:28:34;;;;;;;;;;;;;;;;;;5072552;28;19958;-69
2023/03/16 08:31:00;;;;;;;;;;;;;;;;;;5075440;28;19995;-68
2023/03/16 08:33:26;;;;;;;;;;;;;;;;;;5091107;28;20026;-68
2023/03/16 08:35:52;;;;;;;;;;;;;;;;;;5087752;28;19951;-68
2023/03/16 08:38:19;;;;;;;;;;;;;;;;;;5084578;28;20261;-68
2023/03/16 08:40:47;;;;;;;;;;;;;;;;;;5070213;28;20019;-69
2023/03/16 08:43:13;;;;;;;;;;;;;;;;;;5083741;28;20011;-68
2023/03/16 08:45:39;;;;;;;;;;;;;;;;;;5086098;28;20020;-69
2023/03/16 08:48:06;;;;;;;;;;;;;;;;;;5067834;28;19912;-69
2023/03/16 08:50:32;;;;;;;;;;;;;;;;;;5091822;28;20308;-69
2023/03/16 08:52:59;;;;;;;;;;;;;;;;;;5072043;28;19912;-69
2023/03/16 08:55:25;;;;;;;;;;;;;;;;;;5086681;28;19912;-69
2023/03/16 08:57:51;;;;;;;;;;;;;;;;;;5073384;28;19923;-69
2023/03/16 09:00:19;;;;;;;;;;;;;;;;;;5060582;28;19912;-69
2023/03/16 09:02:45;;;;;;;;;;;;;;;;;;5068729;28;19917;-66
2023/03/16 09:05:12;;;;;;;;;;;;;;;;;;5090476;28;20300;-67
2023/03/16 09:07:38;;;;;;;;;;;;;;;;;;5069433;28;19969;-69
2023/03/16 09:10:04;;;;;;;;;;;;;;;;;;5093368;28;19954;-68
2023/03/16 09:12:30;;;;;;;;;;;;;;;;;;5094542;28;19916;-68
2023/03/16 09:14:56;;;;;;;;;;;;;;;;;;5078021;28;20371;-68
2023/03/16 09:17:22;;;;;;;;;;;;;;;;;;5074101;28;19920;-68
2023/03/16 09:19:51;;;;;;;;;;;;;;;;;;5095449;28;20329;-67
2023/03/16 09:22:18;;;;;;;;;;;;;;;;;;5072948;28;19927;-68
2023/03/16 09:24:44;;;;;;;;;;;;;;;;;;5086580;28;19920;-67
2023/03/16 09:27:10;;;;;;;;;;;;;;;;;;5068037;28;20687;-68
2023/03/16 09:29:36;;;;;;;;;;;;;;;;;;5083238;28;19912;-68
2023/03/16 09:32:04;;;;;;;;;;;;;;;;;;5082555;28;19923;-68
2023/03/16 09:34:30;;;;;;;;;;;;;;;;;;5093283;28;19924;-69
2023/03/16 09:36:56;;;;;;;;;;;;;;;;;;5093034;28;19931;-67
2023/03/16 09:39:23;;;;;;;;;;;;;;;;;;5085292;28;19995;-67
2023/03/16 09:41:49;;;;;;;;;;;;;;;;;;5085022;28;19954;-68
2023/03/16 09:44:15;;;;;;;;;;;;;;;;;;5112381;28;20380;-67
2023/03/16 09:46:44;;;;;;;;;;;;;;;;;;5080395;28;19972;-67
2023/03/16 09:49:10;;;;;;;;;;;;;;;;;;5090916;28;19912;-67
2023/03/16 09:51:37;;;;;;;;;;;;;;;;;;5091533;28;19995;-68
2023/03/16 09:54:03;;;;;;;;;;;;;;;;;;5092564;28;19954;-67
2023/03/16 09:56:29;;;;;;;;;;;;;;;;;;5092292;28;20349;-67
2023/03/16 09:58:55;;;;;;;;;;;;;;;;;;5090860;28;19912;-68
2023/03/16 10:01:21;;;;;;;;;;;;;;;;;;5092028;28;19912;-67
2023/03/16 10:03:47;;;;;;;;;;;;;;;;;;5093388;28;20356;-67
2023/03/16 10:06:15;;;;;;;;;;;;;;;;;;5090088;28;19942;-67
2023/03/16 10:08:41;;;;;;;;;;;;;;;;;;5070309;28;19962;-69
2023/03/16 10:11:07;;;;;;;;;;;;;;;;;;5093124;28;19915;-68
2023/03/16 10:13:33;;;;;;;;;;;;;;;;;;5092515;28;20364;-69
2023/03/16 10:16:01;;;;;;;;;;;;;;;;;;5093430;28;19918;-68
2023/03/16 10:18:33;;;;;;;;;;;;;;;;;;5091847;28;19915;-68
2023/03/16 10:21:20;;;;;;;;;;;;;;;;;;5087021;28;19908;-67
2023/03/16 10:23:48;;;;;;;;;;;;;;;;;;5093643;28;19908;-69
2023/03/16 10:26:14;;;;;;;;;;;;;;;;;;5090440;28;20348;-71
2023/03/16 10:28:44;;;;;;;;;;;;;;;;;;5089706;28;19916;-69
2023/03/16 10:31:10;;;;;;;;;;;;;;;;;;5092346;28;19915;-68
2023/03/16 10:33:40;;;;;;;;;;;;;;;;;;5093265;28;19999;-69
2023/03/16 10:36:09;;;;;;;;;;;;;;;;;;5092201;28;19928;-68
2023/03/16 10:38:37;;;;;;;;;;;;;;;;;;5091917;28;19920;-68
2023/03/16 10:41:03;;;;;;;;;;;;;;;;;;5094235;28;19935;-68
2023/03/16 10:43:31;;;;;;;;;;;;;;;;;;5091058;28;19912;-68
2023/03/16 10:45:57;;;;;;;;;;;;;;;;;;5091926;28;20494;-67
2023/03/16 10:48:24;;;;;;;;;;;;;;;;;;5092043;28;19998;-66
2023/03/16 10:50:50;;;;;;;;;;;;;;;;;;5093890;28;20013;-66
2023/03/16 10:53:16;;;;;;;;;;;;;;;;;;5093502;28;19908;-65
2023/03/16 10:55:44;;;;;;;;;;;;;;;;;;5094345;28;20379;-67
2023/03/16 10:58:10;;;;;;;;;;;;;;;;;;5089943;28;19917;-67
2023/03/16 11:00:37;;;;;;;;;;;;;;;;;;5092264;28;19908;-67
2023/03/16 11:03:03;;;;;;;;;;;;;;;;;;5093674;28;19912;-68
2023/03/16 11:05:29;;;;;;;;;;;;;;;;;;5089040;28;20043;-66
2023/03/16 11:07:55;;;;;;;;;;;;;;;;;;5073727;28;19912;-66
2023/03/16 11:10:21;;;;;;;;;;;;;;;;;;5072416;28;19954;-67
2023/03/16 11:12:47;;;;;;;;;;;;;;;;;;5091520;28;19914;-67
2023/03/16 11:15:13;;;;;;;;;;;;;;;;;;5070214;28;19912;-67
2023/03/16 11:17:40;;;;;;;;;;;;;;;;;;5089255;28;19974;-67
2023/03/16 11:20:11;;;;;;;;;;;;;;;;;;5071023;28;19986;-68
2023/03/16 11:22:37;;;;;;;;;;;;;;;;;;5090170;28;19959;-67
2023/03/16 11:25:05;;;;;;;;;;;;;;;;;;5089422;28;20023;-67
2023/03/16 11:27:33;;;;;;;;;;;;;;;;;;5090682;28;20028;-67
2023/03/16 11:29:59;;;;;;;;;;;;;;;;;;5092608;28;19912;-68
2023/03/16 11:32:26;;;;;;;;;;;;;;;;;;5092075;28;19908;-67
2023/03/16 11:34:54;;;;;;;;;;;;;;;;;;5092353;28;19920;-67
2023/03/16 11:37:20;;;;;;;;;;;;;;;;;;5072662;28;19942;-66
2023/03/16 11:39:48;;;;;;;;;;;;;;;;;;5093295;28;20356;-66
2023/03/16 11:42:14;;;;;;;;;;;;;;;;;;5093797;28;19935;-67
2023/03/16 11:44:42;;;;;;;;;;;;;;;;;;5092992;28;19998;-68
2023/03/16 11:47:12;;;;;;;;;;;;;;;;;;5093990;28;20006;-67
2023/03/16 11:49:43;;;;;;;;;;;;;;;;;;5093440;28;19934;-67
2023/03/16 11:52:09;;;;;;;;;;;;;;;;;;5093124;28;20253;-69
2023/03/16 11:54:37;;;;;;;;;;;;;;;;;;5092858;28;19912;-66
2023/03/16 11:57:03;;;;;;;;;;;;;;;;;;5074952;28;19960;-67
2023/03/16 11:59:37;;;;;;;;;;;;;;;;;;5092481;28;19912;-66
2023/03/16 12:02:06;;;;;;;;;;;;;;;;;;5075161;28;19916;-68
2023/03/16 12:04:35;;;;;;;;;;;;;;;;;;5082584;28;19919;-67
2023/03/16 12:07:03;;;;;;;;;;;;;;;;;;5092583;28;20270;-67
2023/03/16 12:09:29;;;;;;;;;;;;;;;;;;5089828;28;19977;-66
2023/03/16 12:11:58;;;;;;;;;;;;;;;;;;5060133;28;20368;-67
2023/03/16 12:14:25;;;;;;;;;;;;;;;;;;5061926;28;19916;-65
2023/03/16 12:16:51;;;;;;;;;;;;;;;;;;5072689;28;19917;-67
2023/03/16 12:19:17;;;;;;;;;;;;;;;;;;5072541;28;19912;-68
2023/03/16 12:21:47;;;;;;;;;;;;;;;;;;5071869;28;20525;-68
2023/03/16 12:24:13;;;;;;;;;;;;;;;;;;5056209;28;19962;-67
2023/03/16 12:26:40;;;;;;;;;;;;;;;;;;5092060;28;20276;-67
2023/03/16 12:29:07;;;;;;;;;;;;;;;;;;5084667;28;20490;-67
2023/03/16 12:31:33;;;;;;;;;;;;;;;;;;5078398;28;19919;-67
2023/03/16 12:33:59;;;;;;;;;;;;;;;;;;5054803;28;20340;-66
2023/03/16 12:36:25;;;;;;;;;;;;;;;;;;5070213;28;20360;-66
2023/03/16 12:38:52;;;;;;;;;;;;;;;;;;5056127;28;19908;-68
2023/03/16 12:41:20;;;;;;;;;;;;;;;;;;5087672;28;19908;-68
2023/03/16 12:43:46;;;;;;;;;;;;;;;;;;5074471;28;19917;-67
2023/03/16 12:46:13;;;;;;;;;;;;;;;;;;5072728;28;19913;-67
2023/03/16 12:48:38;;;;;;;;;;;;;;;;;;5092454;28;20374;-67
2023/03/16 12:51:04;;;;;;;;;;;;;;;;;;5091819;28;19999;-68
2023/03/16 12:53:30;;;;;;;;;;;;;;;;;;5074337;28;19908;-68
2023/03/16 12:55:57;;;;;;;;;;;;;;;;;;5089758;28;19912;-69
2023/03/16 12:58:23;;;;;;;;;;;;;;;;;;5070804;28;19919;-68
2023/03/16 13:00:49;;;;;;;;;;;;;;;;;;5091502;28;19908;-68
2023/03/16 13:03:16;;;;;;;;;;;;;;;;;;5092650;28;20291;-69
2023/03/16 13:05:42;;;;;;;;;;;;;;;;;;5090516;28;19943;-69
2023/03/16 13:08:09;;;;;;;;;;;;;;;;;;5090569;28;19961;-68
2023/03/16 13:10:36;;;;;;;;;;;;;;;;;;5090953;28;19912;-69
2023/03/16 13:13:03;;;;;;;;;;;;;;;;;;5091181;28;20357;-69
2023/03/16 13:15:30;;;;;;;;;;;;;;;;;;5092501;28;19926;-69
2023/03/16 13:17:56;;;;;;;;;;;;;;;;;;5091359;28;20372;-69
2023/03/16 13:20:22;;;;;;;;;;;;;;;;;;5091462;28;19908;-67
2023/03/16 13:22:52;;;;;;;;;;;;;;;;;;5092135;28;20372;-72
2023/03/16 13:25:21;;;;;;;;;;;;;;;;;;5090615;28;19908;-69
2023/03/16 13:27:46;;;;;;;;;;;;;;;;;;5091409;28;19926;-70
2023/03/16 13:30:13;;;;;;;;;;;;;;;;;;5091295;28;19999;-72
2023/03/16 13:32:42;;;;;;;;;;;;;;;;;;5090960;28;19950;-70
2023/03/16 13:35:08;;;;;;;;;;;;;;;;;;5091827;28;19969;-70
2023/03/16 13:37:34;;;;;;;;;;;;;;;;;;5091812;28;20019;-69
2023/03/16 13:40:03;;;;;;;;;;;;;;;;;;5092207;28;19908;-72
2023/03/16 13:42:31;;;;;;;;;;;;;;;;;;5090762;28;19919;-69
2023/03/16 13:44:58;;;;;;;;;;;;;;;;;;5077700;28;19908;-70
2023/03/16 13:47:27;;;;;;;;;;;;;;;;;;5092047;28;19912;-68
2023/03/16 13:49:52;;;;;;;;;;;;;;;;;;5091127;28;19912;-69
2023/03/16 13:52:20;;;;;;;;;;;;;;;;;;5092396;28;19907;-69
2023/03/16 13:54:51;;;;;;;;;;;;;;;;;;5092514;28;19912;-69
2023/03/16 13:57:19;;;;;;;;;;;;;;;;;;5094897;28;19939;-69
2023/03/16 13:59:46;;;;;;;;;;;;;;;;;;5077730;28;19973;-72
2023/03/16 14:02:11;;;;;;;;;;;;;;;;;;5095607;28;19931;-71
2023/03/16 14:04:38;;;;;;;;;;;;;;;;;;5095307;28;20355;-69
2023/03/16 14:07:04;;;;;;;;;;;;;;;;;;5095292;28;19914;-70
2023/03/16 14:09:30;;;;;;;;;;;;;;;;;;5094177;28;19912;-71
2023/03/16 14:11:56;;;;;;;;;;;;;;;;;;5075570;28;20447;-72
2023/03/16 14:14:22;;;;;;;;;;;;;;;;;;5074953;28;20527;-71
2023/03/16 14:16:48;;;;;;;;;;;;;;;;;;5095167;28;19934;-71
2023/03/16 14:19:15;;;;;;;;;;;;;;;;;;5095532;28;20424;-71
2023/03/16 14:21:41;;;;;;;;;;;;;;;;;;5077742;28;19908;-71
2023/03/16 14:24:08;;;;;;;;;;;;;;;;;;5095988;28;20416;-71
2023/03/16 14:26:34;;;;;;;;;;;;;;;;;;5077754;28;19918;-71
2023/03/16 14:29:00;;;;;;;;;;;;;;;;;;5096023;28;19930;-71
2023/03/16 14:31:26;;;;;;;;;;;;;;;;;;5096198;28;19915;-71
2023/03/16 14:33:53;;;;;;;;;;;;;;;;;;5095759;28;19908;-71
2023/03/16 14:36:19;;;;;;;;;;;;;;;;;;5096038;28;20020;-71
2023/03/16 14:38:47;;;;;;;;;;;;;;;;;;5096216;28;20425;-71
2023/03/16 14:41:13;;;;;;;;;;;;;;;;;;5094665;28;20335;-71
2023/03/16 14:43:40;;;;;;;;;;;;;;;;;;5075810;28;19940;-72
2023/03/16 14:46:09;;;;;;;;;;;;;;;;;;5075776;28;20265;-70
2023/03/16 14:48:35;;;;;;;;;;;;;;;;;;5093529;28;19938;-71
2023/03/16 14:51:01;;;;;;;;;;;;;;;;;;5093852;28;19908;-71
2023/03/16 14:53:27;;;;;;;;;;;;;;;;;;5093425;28;19978;-71
2023/03/16 14:55:53;;;;;;;;;;;;;;;;;;5094297;28;19930;-71
2023/03/16 14:58:19;;;;;;;;;;;;;;;;;;5077371;28;19916;-72
2023/03/16 15:00:45;;;;;;;;;;;;;;;;;;5095218;28;19953;-71
2023/03/16 15:03:11;;;;;;;;;;;;;;;;;;5095547;28;19908;-71
2023/03/16 15:05:37;;;;;;;;;;;;;;;;;;5095509;28;20357;-70
2023/03/16 15:08:03;;;;;;;;;;;;;;;;;;5095180;28;20356;-70
2023/03/16 15:10:30;;;;;;;;;;;;;;;;;;5077363;28;19912;-71
2023/03/16 15:13:04;;;;;;;;;;;;;;;;;;5095336;28;20318;-71
2023/03/16 15:15:31;;;;;;;;;;;;;;;;;;5076770;28;20387;-71
2023/03/16 15:17:57;;;;;;;;;;;;;;;;;;5095539;28;19916;-71
2023/03/16 15:20:24;;;;;;;;;;;;;;;;;;5077221;28;20250;-71
2023/03/16 15:22:50;;;;;;;;;;;;;;;;;;5094746;28;20003;-71
2023/03/16 15:25:16;;;;;;;;;;;;;;;;;;5076849;28;19909;-71
2023/03/16 15:27:43;;;;;;;;;;;;;;;;;;5095016;28;19908;-70
2023/03/16 15:30:09;;;;;;;;;;;;;;;;;;5094650;28;19915;-71
2023/03/16 15:32:35;;;;;;;;;;;;;;;;;;5095278;28;19977;-70
2023/03/16 15:35:02;;;;;;;;;;;;;;;;;;5094582;28;20428;-70
2023/03/16 15:37:31;;;;;;;;;;;;;;;;;;5076156;28;19920;-71
2023/03/16 15:39:57;;;;;;;;;;;;;;;;;;5094885;28;19915;-71
2023/03/16 15:42:24;;;;;;;;;;;;;;;;;;5095342;28;20368;-71
2023/03/16 15:44:50;;;;;;;;;;;;;;;;;;5094448;28;20425;-71
2023/03/16 15:47:16;;;;;;;;;;;;;;;;;;5076644;28;19908;-71
2023/03/16 15:49:42;;;;;;;;;;;;;;;;;;5094502;28;19908;-72
2023/03/16 15:52:08;;;;;;;;;;;;;;;;;;5074399;28;20272;-71
2023/03/16 15:54:34;;;;;;;;;;;;;;;;;;5094465;28;19912;-71
2023/03/16 15:57:00;;;;;;;;;;;;;;;;;;5094177;28;19916;-71
2023/03/16 15:59:26;;;;;;;;;;;;;;;;;;5094659;28;19916;-71
2023/03/16 16:01:52;;;;;;;;;;;;;;;;;;5094843;28;19994;-71
2023/03/16 16:04:18;;;;;;;;;;;;;;;;;;5094425;28;20356;-71
2023/03/16 16:06:44;;;;;;;;;;;;;;;;;;5094542;28;20006;-71
2023/03/16 16:09:10;;;;;;;;;;;;;;;;;;5076306;28;19908;-71
2023/03/16 16:11:36;;;;;;;;;;;;;;;;;;5094092;28;19915;-72
2023/03/16 16:14:02;;;;;;;;;;;;;;;;;;5094380;28;20053;-71
2023/03/16 16:16:28;;;;;;;;;;;;;;;;;;5076094;28;19920;-71
2023/03/16 16:18:54;;;;;;;;;;;;;;;;;;5093303;28;19912;-71
2023/03/16 16:21:20;;;;;;;;;;;;;;;;;;5094486;28;19915;-71
2023/03/16 16:23:46;;;;;;;;;;;;;;;;;;5094143;28;19915;-71
2023/03/16 16:26:13;;;;;;;;;;;;;;;;;;5093935;28;19915;-71
2023/03/16 16:28:38;;;;;;;;;;;;;;;;;;5075941;28;19908;-71
2023/03/16 16:31:05;;;;;;;;;;;;;;;;;;5094094;28;19916;-72
2023/03/16 16:33:31;;;;;;;;;;;;;;;;;;5075539;28;19955;-71
2023/03/16 16:35:57;;;;;;;;;;;;;;;;;;5093813;28;19920;-71
2023/03/16 16:38:25;;;;;;;;;;;;;;;;;;5093115;28;20222;-70
2023/03/16 16:40:51;;;;;;;;;;;;;;;;;;5075377;28;19944;-71